Terminal Aerodrome Forecast
Issued by NWS Grand Forks, ND

Home | Current Version | Previous Version | Graphics & Text | Print | Product List | Glossary On
Versions: 1 2 3 4 5 6 7 8 9 10 11 12 13
000
FTUS43 KFGF 240031 RRA
TAFFAR
TAF
KFAR 240031Z 2401/2424 32018G25KT P6SM BKN060
     FM240200 31010KT P6SM BKN070
     FM241000 30011KT P6SM BKN040
     FM241500 32016G26KT P6SM BKN030=

USA.gov is the U.S. government's official web portal to all federal, state and local government web resources and services.